GLD1793 TLPC-TFFF
Flight info
| Callsign | GLD1793 |
|---|---|
| Flight time | 0h 15m |
| Altitude | 6500 |
| Route | DCT KAREX DCT |
| Aircraft | BE58/M-SDFGIRY/S |
Departure
| Time | 2026-05-04 18:45 |
|---|---|
| Airport | George F. L. Charles Airport (TLPC) |
Arrival
| Time | 2026-05-04 19:01 |
|---|---|
| Airport | Martinique Aimé Césaire International Airport (TFFF) |
| Time | Latitude | Longitude | Altitude | Speed | Heading |
|---|---|---|---|---|---|
| 2026-05-04 18:37 | 14.01998 | -60.99614 | 4 ft | 0 kts | 266° |
| 2026-05-04 18:42 | 14.01995 | -60.99621 | 4 ft | 6 kts | 212° |
| 2026-05-04 18:42 | 14.01921 | -60.99649 | 3 ft | 10 kts | 229° |
| 2026-05-04 18:42 | 14.01898 | -60.99716 | 5 ft | 11 kts | 257° |
| 2026-05-04 18:43 | 14.01884 | -60.99804 | 7 ft | 14 kts | 262° |
| 2026-05-04 18:43 | 14.01863 | -60.99868 | 8 ft | 7 kts | 249° |
| 2026-05-04 18:43 | 14.01849 | -60.99904 | 8 ft | 5 kts | 248° |
| 2026-05-04 18:43 | 14.01840 | -60.99928 | 8 ft | 3 kts | 248° |
| 2026-05-04 18:44 | 14.01841 | -60.99959 | 8 ft | 8 kts | 267° |
| 2026-05-04 18:44 | 14.01827 | -60.99962 | 8 ft | 2 kts | 88° |
| 2026-05-04 18:44 | 14.01839 | -60.99921 | 8 ft | 27 kts | 76° |
| 2026-05-04 18:45 | 14.01965 | -60.99462 | 64 ft | 92 kts | 75° |
| 2026-05-04 18:45 | 14.02341 | -60.98874 | 453 ft | 114 kts | 29° |
| 2026-05-04 18:45 | 14.03213 | -60.99085 | 818 ft | 136 kts | 341° |
| 2026-05-04 18:45 | 14.04006 | -60.99574 | 1396 ft | 137 kts | 330° |
| 2026-05-04 18:46 | 14.04787 | -61.00277 | 1749 ft | 151 kts | 316° |
| 2026-05-04 18:46 | 14.05340 | -61.01157 | 2296 ft | 151 kts | 292° |
| 2026-05-04 18:46 | 14.05609 | -61.02267 | 2583 ft | 164 kts | 282° |
| 2026-05-04 18:46 | 14.05765 | -61.03412 | 3044 ft | 164 kts | 276° |
| 2026-05-04 18:47 | 14.06104 | -61.04622 | 3048 ft | 188 kts | 292° |
| 2026-05-04 18:47 | 14.06932 | -61.05686 | 3041 ft | 197 kts | 328° |
| 2026-05-04 18:47 | 14.08129 | -61.06416 | 3044 ft | 202 kts | 334° |
| 2026-05-04 18:47 | 14.09363 | -61.07141 | 3041 ft | 207 kts | 334° |
| 2026-05-04 18:48 | 14.10625 | -61.07887 | 3041 ft | 210 kts | 334° |
| 2026-05-04 18:48 | 14.11886 | -61.08632 | 3042 ft | 211 kts | 333° |
| 2026-05-04 18:48 | 14.13171 | -61.09372 | 3040 ft | 211 kts | 333° |
| 2026-05-04 18:48 | 14.14442 | -61.10094 | 3040 ft | 212 kts | 333° |
| 2026-05-04 18:49 | 14.15734 | -61.10830 | 3029 ft | 212 kts | 334° |
| 2026-05-04 18:49 | 14.17023 | -61.11578 | 3031 ft | 213 kts | 333° |
| 2026-05-04 18:49 | 14.18315 | -61.12321 | 3030 ft | 212 kts | 334° |
| 2026-05-04 18:49 | 14.19608 | -61.13065 | 3027 ft | 213 kts | 334° |
| 2026-05-04 18:50 | 14.20900 | -61.13810 | 3026 ft | 213 kts | 334° |
| 2026-05-04 18:50 | 14.22186 | -61.14565 | 3025 ft | 213 kts | 333° |
| 2026-05-04 18:50 | 14.23475 | -61.15321 | 3025 ft | 213 kts | 334° |
| 2026-05-04 18:50 | 14.24758 | -61.16076 | 3024 ft | 213 kts | 333° |
| 2026-05-04 18:51 | 14.26053 | -61.16832 | 3026 ft | 213 kts | 333° |
| 2026-05-04 18:51 | 14.27326 | -61.17569 | 3026 ft | 213 kts | 333° |
| 2026-05-04 18:51 | 14.28640 | -61.18318 | 3025 ft | 213 kts | 336° |
| 2026-05-04 18:51 | 14.30028 | -61.18723 | 3016 ft | 209 kts | 353° |
| 2026-05-04 18:52 | 14.31443 | -61.19078 | 3017 ft | 210 kts | 347° |
| 2026-05-04 18:52 | 14.32830 | -61.19576 | 3019 ft | 211 kts | 343° |
| 2026-05-04 18:52 | 14.34208 | -61.20104 | 3020 ft | 212 kts | 343° |
| 2026-05-04 18:52 | 14.35554 | -61.20734 | 3018 ft | 214 kts | 330° |
| 2026-05-04 18:53 | 14.36817 | -61.21556 | 3017 ft | 214 kts | 334° |
| 2026-05-04 18:53 | 14.38158 | -61.22227 | 3014 ft | 213 kts | 340° |
| 2026-05-04 18:53 | 14.39576 | -61.22517 | 3008 ft | 207 kts | 10° |
| 2026-05-04 18:53 | 14.40838 | -61.21933 | 3007 ft | 197 kts | 46° |
| 2026-05-04 18:54 | 14.41831 | -61.20964 | 3007 ft | 197 kts | 44° |
| 2026-05-04 18:54 | 14.42965 | -61.20165 | 3008 ft | 198 kts | 34° |
| 2026-05-04 18:54 | 14.44175 | -61.19490 | 3012 ft | 198 kts | 32° |
| 2026-05-04 18:54 | 14.45372 | -61.18824 | 3012 ft | 197 kts | 32° |
| 2026-05-04 18:55 | 14.46545 | -61.18158 | 2997 ft | 189 kts | 33° |
| 2026-05-04 18:55 | 14.48868 | -61.16823 | 2940 ft | 194 kts | 34° |
| 2026-05-04 18:55 | 14.50046 | -61.16151 | 2944 ft | 194 kts | 34° |
| 2026-05-04 18:56 | 14.51231 | -61.15474 | 2946 ft | 196 kts | 34° |
| 2026-05-04 18:56 | 14.52428 | -61.14788 | 2945 ft | 198 kts | 33° |
| 2026-05-04 18:56 | 14.53646 | -61.14091 | 2857 ft | 204 kts | 33° |
| 2026-05-04 18:56 | 14.54897 | -61.13311 | 2614 ft | 214 kts | 44° |
| 2026-05-04 18:57 | 14.55698 | -61.12048 | 2375 ft | 211 kts | 72° |
| 2026-05-04 18:57 | 14.56128 | -61.10621 | 2146 ft | 212 kts | 76° |
| 2026-05-04 18:57 | 14.56535 | -61.09140 | 1909 ft | 216 kts | 77° |
| 2026-05-04 18:57 | 14.57059 | -61.07661 | 1456 ft | 226 kts | 64° |
| 2026-05-04 18:58 | 14.58085 | -61.06409 | 895 ft | 230 kts | 56° |
| 2026-05-04 18:58 | 14.58499 | -61.04913 | 680 ft | 214 kts | 98° |
| 2026-05-04 18:58 | 14.57740 | -61.03685 | 492 ft | 204 kts | 137° |
| 2026-05-04 18:58 | 14.56664 | -61.02841 | 488 ft | 182 kts | 140° |
| 2026-05-04 18:59 | 14.55802 | -61.02041 | 397 ft | 148 kts | 119° |
| 2026-05-04 18:59 | 14.55754 | -61.01193 | 377 ft | 114 kts | 52° |
| 2026-05-04 18:59 | 14.56477 | -61.01159 | 202 ft | 119 kts | 334° |
| 2026-05-04 18:59 | 14.57053 | -61.01813 | 264 ft | 134 kts | 310° |
| 2026-05-04 19:00 | 14.57585 | -61.02604 | 471 ft | 115 kts | 332° |
| 2026-05-04 19:00 | 14.58250 | -61.02540 | 335 ft | 106 kts | 28° |
| 2026-05-04 19:00 | 14.58795 | -61.02079 | 150 ft | 102 kts | 71° |
| 2026-05-04 19:00 | 14.58924 | -61.01383 | 20 ft | 91 kts | 79° |
| 2026-05-04 19:01 | 14.59027 | -61.00818 | 7 ft | 68 kts | 80° |
| 2026-05-04 19:01 | 14.59058 | -61.00579 | 3 ft | 9 kts | 54° |
| 2026-05-04 19:01 | 14.59066 | -61.00641 | 4 ft | 13 kts | 256° |
| 2026-05-04 19:01 | 14.59118 | -61.00680 | 5 ft | 7 kts | 350° |
| 2026-05-04 19:02 | 14.59190 | -61.00694 | 5 ft | 12 kts | 349° |
| 2026-05-04 19:02 | 14.59258 | -61.00705 | 5 ft | 11 kts | 350° |
| 2026-05-04 19:02 | 14.59301 | -61.00711 | 5 ft | 2 kts | 36° |
| 2026-05-04 19:02 | 14.59292 | -61.00698 | 5 ft | 0 kts | 167° |